createdAt,value
2018-07-17T00:00:00.741Z,19.32
2018-07-17T00:01:00.700Z,19.19
2018-07-17T00:02:00.715Z,19.21
2018-07-17T00:03:00.726Z,19.32
2018-07-17T00:04:00.743Z,19.25
2018-07-17T00:05:00.766Z,19.21
2018-07-17T00:06:00.827Z,19.18
2018-07-17T00:07:00.797Z,19.28
2018-07-17T00:08:00.813Z,19.22
2018-07-17T00:09:00.854Z,19.23
2018-07-17T00:10:00.843Z,19.14
2018-07-17T00:11:00.859Z,19.21
2018-07-17T00:12:00.932Z,19.22
2018-07-17T00:13:00.897Z,19.19
2018-07-17T00:14:00.912Z,19.14
2018-07-17T00:15:00.928Z,19.10
2018-07-17T00:16:00.940Z,19.22
2018-07-17T00:17:00.962Z,19.22
2018-07-17T00:18:01.030Z,19.10
2018-07-17T00:19:00.995Z,19.21
2018-07-17T00:20:01.007Z,19.10
2018-07-17T00:21:01.027Z,19.16
2018-07-17T00:22:01.040Z,19.11
2018-07-17T00:23:01.061Z,19.14
2018-07-17T00:24:01.128Z,19.19
2018-07-17T00:25:01.095Z,19.11
2018-07-17T00:26:01.111Z,19.11
2018-07-17T00:27:01.122Z,19.10
2018-07-17T00:28:01.144Z,19.10
2018-07-17T00:29:01.160Z,19.13
2018-07-17T00:30:01.175Z,19.07
2018-07-17T00:31:01.191Z,19.13
2018-07-17T00:32:01.206Z,19.10
2018-07-17T00:33:01.225Z,19.18
2018-07-17T00:34:01.247Z,19.07
2018-07-17T00:35:01.254Z,19.08
2018-07-17T00:36:01.326Z,19.16
2018-07-17T00:37:01.288Z,19.18
2018-07-17T00:38:01.308Z,19.07
2018-07-17T00:39:01.320Z,19.08
2018-07-17T00:40:01.342Z,19.07
2018-07-17T00:41:01.357Z,19.04
2018-07-17T00:42:01.422Z,19.08
2018-07-17T00:43:01.389Z,19.11
2018-07-17T00:44:01.410Z,19.06
2018-07-17T00:45:01.441Z,19.10
2018-07-17T00:46:01.436Z,19.02
2018-07-17T00:47:01.451Z,18.98
2018-07-17T00:48:01.571Z,19.14
2018-07-17T00:49:01.490Z,19.13
2018-07-17T00:50:01.503Z,19.10
2018-07-17T00:51:01.521Z,19.13
2018-07-17T00:52:01.540Z,19.08
2018-07-17T00:53:01.556Z,19.10
2018-07-17T00:54:01.576Z,19.06
2018-07-17T00:55:01.582Z,19.08
2018-07-17T00:56:01.604Z,19.06
2018-07-17T00:57:01.618Z,19.13
2018-07-17T00:58:01.638Z,19.10
2018-07-17T00:59:01.655Z,19.16
2018-07-17T01:00:01.669Z,19.08
2018-07-17T01:01:01.747Z,19.00
2018-07-17T01:02:01.701Z,19.07
2018-07-17T01:03:01.720Z,19.04
2018-07-17T01:04:01.737Z,19.04
2018-07-17T01:05:01.754Z,19.13
2018-07-17T01:06:01.767Z,19.19
2018-07-17T01:07:01.824Z,19.11
2018-07-17T01:08:01.799Z,19.13
2018-07-17T01:09:01.815Z,19.04
2018-07-17T01:10:01.837Z,19.14
2018-07-17T01:11:01.847Z,19.13
2018-07-17T01:12:01.920Z,19.10
2018-07-17T01:13:01.880Z,19.02
2018-07-17T01:14:01.898Z,19.00
2018-07-17T01:15:01.918Z,19.08
2018-07-17T01:16:01.938Z,19.08
2018-07-17T01:17:01.952Z,19.10
2018-07-17T01:18:02.015Z,19.06
2018-07-17T01:19:01.985Z,19.10
2018-07-17T01:20:02.072Z,19.07
2018-07-17T01:21:02.014Z,19.07
2018-07-17T01:22:02.034Z,19.10
2018-07-17T01:23:02.047Z,19.10
2018-07-17T01:24:02.172Z,19.00
2018-07-17T01:25:02.080Z,19.11
2018-07-17T01:26:02.109Z,19.04
2018-07-17T01:27:02.118Z,19.02
2018-07-17T01:28:02.130Z,19.04
2018-07-17T01:29:02.144Z,19.02
2018-07-17T01:30:02.217Z,19.00
2018-07-17T01:31:02.179Z,18.99
2018-07-17T01:32:02.220Z,18.99
2018-07-17T01:33:02.215Z,19.00
2018-07-17T01:34:02.229Z,19.00
2018-07-17T01:35:02.246Z,19.04
2018-07-17T01:36:02.263Z,19.00
2018-07-17T01:37:02.277Z,18.98
2018-07-17T01:38:02.291Z,19.04
2018-07-17T01:39:02.305Z,18.99
2018-07-17T01:40:02.329Z,19.00
2018-07-17T01:41:02.340Z,18.98
2018-07-17T01:42:02.356Z,19.00
2018-07-17T01:43:02.383Z,18.95
2018-07-17T01:44:02.389Z,19.00
2018-07-17T01:45:02.471Z,19.06
2018-07-17T01:46:02.421Z,19.06
2018-07-17T01:47:02.450Z,18.84
2018-07-17T01:48:02.506Z,18.99
2018-07-17T01:49:02.473Z,18.90
2018-07-17T01:50:02.491Z,19.00
2018-07-17T01:51:02.582Z,18.84
2018-07-17T01:52:02.520Z,19.00
2018-07-17T01:53:02.539Z,18.99
2018-07-17T01:54:02.603Z,18.94
2018-07-17T01:55:02.573Z,18.88
2018-07-17T01:56:02.584Z,18.90
2018-07-17T01:57:02.605Z,18.94
2018-07-17T01:58:02.621Z,18.95
2018-07-17T01:59:02.638Z,18.98
2018-07-17T02:00:02.656Z,18.94
2018-07-17T02:01:02.669Z,18.88
2018-07-17T02:02:02.682Z,18.99
2018-07-17T02:03:02.703Z,18.88
2018-07-17T02:04:02.718Z,18.91
2018-07-17T02:05:02.745Z,18.85
2018-07-17T02:06:02.809Z,19.06
2018-07-17T02:07:02.769Z,18.99
2018-07-17T02:08:02.779Z,18.95
2018-07-17T02:09:02.802Z,18.92
2018-07-17T02:10:02.817Z,19.04
2018-07-17T02:11:02.834Z,18.98
2018-07-17T02:12:02.846Z,18.90
2018-07-17T02:13:02.862Z,18.90
2018-07-17T02:14:02.880Z,18.90
2018-07-17T02:15:02.894Z,18.90
2018-07-17T02:16:02.911Z,18.85
2018-07-17T02:17:02.926Z,18.94
2018-07-17T02:18:02.999Z,18.90
2018-07-17T02:19:02.965Z,18.90
2018-07-17T02:20:03.010Z,18.92
2018-07-17T02:21:02.996Z,18.99
2018-07-17T02:22:03.016Z,18.92
2018-07-17T02:23:03.029Z,18.85
2018-07-17T02:24:03.045Z,18.88
2018-07-17T02:25:03.060Z,18.91
2018-07-17T02:26:03.165Z,18.91
2018-07-17T02:27:03.153Z,18.87
2018-07-17T02:28:03.114Z,18.81
2018-07-17T02:29:03.127Z,18.87
2018-07-17T02:30:03.152Z,18.85
2018-07-17T02:31:03.163Z,18.88
2018-07-17T02:32:03.261Z,18.94
2018-07-17T02:33:03.196Z,18.91
2018-07-17T02:34:03.208Z,18.91
2018-07-17T02:35:03.228Z,18.95
2018-07-17T02:36:03.241Z,18.92
2018-07-17T02:37:03.257Z,18.95
2018-07-17T02:38:03.273Z,18.90
2018-07-17T02:39:03.293Z,18.90
2018-07-17T02:40:03.305Z,18.85
2018-07-17T02:41:03.323Z,18.88
2018-07-17T02:42:03.347Z,18.88
2018-07-17T02:43:03.360Z,18.91
2018-07-17T02:44:03.376Z,18.80
2018-07-17T02:45:03.393Z,18.82
2018-07-17T02:46:03.409Z,18.91
2018-07-17T02:47:03.476Z,18.88
2018-07-17T02:48:03.441Z,18.87
2018-07-17T02:49:03.464Z,18.73
2018-07-17T02:50:03.477Z,18.87
2018-07-17T02:51:03.486Z,18.88
2018-07-17T02:52:03.506Z,18.88
2018-07-17T02:53:03.530Z,18.87
2018-07-17T02:54:03.544Z,18.87
2018-07-17T02:55:03.551Z,18.90
2018-07-17T02:56:03.571Z,18.92
2018-07-17T02:57:03.590Z,18.78
2018-07-17T02:58:03.600Z,18.81
2018-07-17T02:59:03.666Z,18.78
2018-07-17T03:00:03.637Z,18.84
2018-07-17T03:01:03.648Z,18.81
2018-07-17T03:02:03.669Z,18.72
2018-07-17T03:03:03.685Z,18.84
2018-07-17T03:04:03.700Z,18.87
2018-07-17T03:05:03.823Z,18.80
2018-07-17T03:06:03.735Z,18.85
2018-07-17T03:07:03.817Z,18.78
2018-07-17T03:08:03.775Z,18.80
2018-07-17T03:09:03.784Z,18.87
2018-07-17T03:10:03.802Z,18.87
2018-07-17T03:11:03.811Z,18.88
2018-07-17T03:12:03.829Z,18.82
2018-07-17T03:13:03.852Z,18.85
2018-07-17T03:14:03.862Z,18.75
2018-07-17T03:15:03.879Z,18.81
2018-07-17T03:16:03.893Z,18.82
2018-07-17T03:17:03.965Z,18.85
2018-07-17T03:18:03.933Z,18.80
2018-07-17T03:19:03.945Z,18.87
2018-07-17T03:20:03.965Z,18.88
2018-07-17T03:21:03.982Z,18.80
2018-07-17T03:22:03.998Z,18.84
2018-07-17T03:23:04.013Z,18.76
2018-07-17T03:24:04.027Z,18.88
2018-07-17T03:25:04.045Z,18.81
2018-07-17T03:26:04.065Z,18.87
2018-07-17T03:27:04.080Z,18.78
2018-07-17T03:28:04.094Z,18.85
2018-07-17T03:29:04.159Z,18.87
2018-07-17T03:30:04.135Z,18.78
2018-07-17T03:31:04.145Z,18.78
2018-07-17T03:32:04.206Z,18.80
2018-07-17T03:33:04.180Z,18.73
2018-07-17T03:34:04.196Z,18.88
2018-07-17T03:35:04.207Z,18.84
2018-07-17T03:36:04.227Z,18.80
2018-07-17T03:37:04.238Z,18.85
2018-07-17T03:38:04.296Z,18.81
2018-07-17T03:39:04.272Z,18.78
2018-07-17T03:40:04.295Z,18.78
2018-07-17T03:41:04.306Z,18.90
2018-07-17T03:42:04.322Z,18.90
2018-07-17T03:43:04.339Z,18.78
2018-07-17T03:44:04.401Z,18.87
2018-07-17T03:45:04.376Z,18.85
2018-07-17T03:46:04.388Z,18.84
2018-07-17T03:47:04.456Z,18.81
2018-07-17T03:48:04.424Z,18.84
2018-07-17T03:49:04.437Z,18.81
2018-07-17T03:50:04.475Z,18.80
2018-07-17T03:51:04.473Z,18.84
2018-07-17T03:52:04.536Z,18.87
2018-07-17T03:53:04.507Z,18.75
2018-07-17T03:54:04.520Z,18.81
2018-07-17T03:55:04.540Z,18.85
2018-07-17T03:56:04.556Z,18.82
2018-07-17T03:57:04.569Z,18.80
2018-07-17T03:58:04.641Z,18.80
2018-07-17T03:59:04.605Z,18.78
2018-07-17T04:00:04.623Z,18.76
2018-07-17T04:01:04.635Z,18.72
2018-07-17T04:02:04.714Z,18.72
2018-07-17T04:03:04.667Z,18.73
2018-07-17T04:04:04.685Z,18.82
2018-07-17T04:05:04.707Z,18.66
2018-07-17T04:06:04.721Z,18.81
2018-07-17T04:07:04.737Z,18.73
2018-07-17T04:08:04.794Z,18.73
2018-07-17T04:09:04.765Z,18.73
2018-07-17T04:10:04.786Z,18.70
2018-07-17T04:11:04.805Z,18.75
2018-07-17T04:12:04.813Z,18.80
2018-07-17T04:13:04.834Z,18.76
2018-07-17T04:14:04.884Z,18.87
2018-07-17T04:15:04.870Z,18.84
2018-07-17T04:16:04.885Z,18.80
2018-07-17T04:17:04.895Z,18.75
2018-07-17T04:18:04.916Z,18.75
2018-07-17T04:19:04.927Z,18.76
2018-07-17T04:20:04.948Z,18.75
2018-07-17T04:21:04.962Z,18.73
2018-07-17T04:22:04.977Z,18.73
2018-07-17T04:23:04.998Z,18.73
2018-07-17T04:24:05.014Z,18.72
2018-07-17T04:25:05.032Z,18.73
2018-07-17T04:26:05.047Z,18.63
2018-07-17T04:27:05.058Z,18.75
2018-07-17T04:28:05.077Z,18.72
2018-07-17T04:29:05.096Z,18.62
2018-07-17T04:30:05.115Z,18.69
2018-07-17T04:31:05.130Z,18.80
2018-07-17T04:32:05.141Z,18.72
2018-07-17T04:33:05.161Z,18.72
2018-07-17T04:34:05.174Z,18.65
2018-07-17T04:35:05.188Z,18.73
2018-07-17T04:36:05.206Z,18.70
2018-07-17T04:37:05.222Z,18.69
2018-07-17T04:38:05.241Z,18.70
2018-07-17T04:39:05.253Z,18.72
2018-07-17T04:40:05.332Z,18.73
2018-07-17T04:41:05.290Z,18.70
2018-07-17T04:42:05.304Z,18.70
2018-07-17T04:43:05.318Z,18.73
2018-07-17T04:44:05.354Z,18.73
2018-07-17T04:45:05.357Z,18.70
2018-07-17T04:46:05.374Z,18.80
2018-07-17T04:47:05.389Z,18.69
2018-07-17T04:48:05.399Z,18.66
2018-07-17T04:49:05.422Z,18.72
2018-07-17T04:50:05.438Z,18.58
2018-07-17T04:51:05.450Z,18.62
2018-07-17T04:52:05.465Z,18.73
2018-07-17T04:53:05.484Z,18.65
2018-07-17T04:54:05.499Z,18.69
2018-07-17T04:55:05.519Z,18.70
2018-07-17T04:56:05.533Z,18.58
2018-07-17T04:57:05.548Z,18.70
2018-07-17T04:58:05.621Z,18.67
2018-07-17T04:59:05.579Z,18.70
2018-07-17T05:00:05.602Z,18.73
2018-07-17T05:01:05.616Z,18.67
2018-07-17T05:02:05.665Z,18.69
2018-07-17T05:03:05.644Z,18.69
2018-07-17T05:04:05.666Z,18.67
2018-07-17T05:05:05.715Z,18.63
2018-07-17T05:06:05.700Z,18.76
2018-07-17T05:07:05.717Z,18.70
2018-07-17T05:08:05.729Z,18.69
2018-07-17T05:09:05.748Z,18.70
2018-07-17T05:10:05.759Z,18.69
2018-07-17T05:11:05.774Z,18.70
2018-07-17T05:12:05.790Z,18.81
2018-07-17T05:13:05.914Z,18.72
2018-07-17T05:14:05.826Z,18.80
2018-07-17T05:15:05.843Z,18.73
2018-07-17T05:16:05.909Z,18.72
2018-07-17T05:17:05.872Z,18.75
2018-07-17T05:18:05.890Z,18.72
2018-07-17T05:19:05.909Z,18.72
2018-07-17T05:20:05.955Z,18.70
2018-07-17T05:21:05.944Z,18.72
2018-07-17T05:22:05.952Z,18.75
2018-07-17T05:23:05.971Z,18.70
2018-07-17T05:24:05.987Z,18.72
2018-07-17T05:25:06.001Z,18.76
2018-07-17T05:26:06.032Z,18.76
2018-07-17T05:27:06.127Z,18.72
2018-07-17T05:28:06.104Z,18.78
2018-07-17T05:29:06.211Z,18.76
2018-07-17T05:30:06.089Z,18.72
2018-07-17T05:31:06.102Z,18.76
2018-07-17T05:32:06.121Z,18.75
2018-07-17T05:33:06.143Z,18.72
2018-07-17T05:34:06.156Z,18.73
2018-07-17T05:35:06.212Z,18.70
2018-07-17T05:36:06.183Z,18.66
2018-07-17T05:37:06.201Z,18.76
2018-07-17T05:38:06.215Z,18.70
2018-07-17T05:39:06.270Z,18.73
2018-07-17T05:40:06.248Z,18.76
2018-07-17T05:41:06.268Z,18.78
2018-07-17T05:42:06.278Z,18.75
2018-07-17T05:43:06.298Z,18.70
2018-07-17T05:44:06.315Z,18.78
2018-07-17T05:45:06.356Z,18.78
2018-07-17T05:46:06.395Z,18.82
2018-07-17T05:47:06.361Z,18.80
2018-07-17T05:48:06.382Z,18.72
2018-07-17T05:49:06.398Z,18.82
2018-07-17T05:50:06.411Z,18.80
2018-07-17T05:51:06.451Z,18.88
2018-07-17T05:52:06.447Z,18.91
2018-07-17T05:53:06.464Z,18.88
2018-07-17T05:54:06.482Z,18.91
2018-07-17T05:55:06.490Z,18.91
2018-07-17T05:56:06.512Z,18.92
2018-07-17T05:57:06.618Z,18.88
2018-07-17T05:58:06.545Z,18.84
2018-07-17T05:59:06.563Z,18.92
2018-07-17T06:00:06.580Z,18.92
2018-07-17T06:01:06.597Z,18.92
2018-07-17T06:02:06.604Z,18.91
2018-07-17T06:03:06.649Z,18.90
2018-07-17T06:04:06.642Z,18.91
2018-07-17T06:05:06.660Z,18.92
2018-07-17T06:06:06.670Z,18.88
2018-07-17T06:07:06.687Z,18.91
2018-07-17T06:08:06.701Z,18.87
2018-07-17T06:09:06.816Z,18.95
2018-07-17T06:10:06.807Z,19.02
2018-07-17T06:11:06.756Z,18.98
2018-07-17T06:12:06.768Z,19.00
2018-07-17T06:13:06.790Z,19.00
2018-07-17T06:14:06.801Z,18.99
2018-07-17T06:15:06.818Z,19.00
2018-07-17T06:16:06.885Z,19.00
2018-07-17T06:17:06.857Z,19.16
2018-07-17T06:18:06.868Z,19.10
2018-07-17T06:19:06.904Z,19.13
2018-07-17T06:20:06.905Z,19.19
2018-07-17T06:21:07.003Z,19.16
2018-07-17T06:22:06.949Z,19.14
2018-07-17T06:23:06.953Z,19.11
2018-07-17T06:24:06.967Z,19.02
2018-07-17T06:25:07.059Z,19.13
2018-07-17T06:26:07.032Z,19.07
2018-07-17T06:27:07.017Z,19.14
2018-07-17T06:28:07.033Z,19.19
2018-07-17T06:29:07.049Z,19.19
2018-07-17T06:30:07.073Z,19.22
2018-07-17T06:31:07.086Z,19.26
2018-07-17T06:32:07.106Z,19.25
2018-07-17T06:33:07.159Z,19.32
2018-07-17T06:34:07.137Z,19.36
2018-07-17T06:35:07.147Z,19.28
2018-07-17T06:36:07.167Z,19.39
2018-07-17T06:37:07.184Z,19.36
2018-07-17T06:38:07.200Z,19.36
2018-07-17T06:39:07.219Z,19.43
2018-07-17T06:40:07.284Z,19.50
2018-07-17T06:41:07.253Z,19.54
2018-07-17T06:42:07.266Z,19.48
2018-07-17T06:43:07.283Z,19.62
2018-07-17T06:44:07.305Z,19.61
2018-07-17T06:45:07.312Z,19.77
2018-07-17T06:46:07.379Z,19.83
2018-07-17T06:47:07.349Z,19.92
2018-07-17T06:48:07.365Z,20.03
2018-07-17T06:49:07.383Z,20.13
2018-07-17T06:50:07.465Z,20.17
2018-07-17T06:51:07.413Z,20.23
2018-07-17T06:52:07.433Z,20.41
2018-07-17T06:53:07.449Z,20.31
2018-07-17T06:54:07.465Z,20.55
2018-07-17T06:55:07.482Z,20.61
2018-07-17T06:56:07.501Z,20.69
2018-07-17T06:57:07.511Z,20.77
2018-07-17T06:58:07.530Z,20.84
2018-07-17T06:59:07.546Z,20.84
2018-07-17T07:00:07.568Z,20.94
2018-07-17T07:01:07.583Z,20.94
2018-07-17T07:02:07.597Z,21.12
2018-07-17T07:03:07.613Z,21.19
2018-07-17T07:04:07.634Z,21.27
2018-07-17T07:05:07.694Z,21.37
2018-07-17T07:06:07.666Z,21.53
2018-07-17T07:07:07.685Z,21.46
2018-07-17T07:08:07.698Z,21.38
2018-07-17T07:09:07.717Z,21.50
2018-07-17T07:10:07.793Z,21.56
2018-07-17T07:11:07.829Z,21.67
2018-07-17T07:12:07.767Z,21.75
2018-07-17T07:13:07.793Z,21.83
2018-07-17T07:14:07.872Z,21.96
2018-07-17T07:15:07.825Z,21.90
2018-07-17T07:16:07.889Z,22.02
2018-07-17T07:17:07.864Z,22.03
2018-07-17T07:18:07.877Z,21.99
2018-07-17T07:19:07.894Z,21.83
2018-07-17T07:20:07.972Z,21.94
2018-07-17T07:21:07.925Z,22.18
2018-07-17T07:22:07.951Z,22.25
2018-07-17T07:23:07.965Z,22.14
2018-07-17T07:24:07.988Z,22.07
2018-07-17T07:25:08.003Z,22.12
2018-07-17T07:26:08.032Z,22.10
2018-07-17T07:27:08.036Z,22.24
2018-07-17T07:28:08.105Z,22.39
2018-07-17T07:29:08.073Z,22.58
2018-07-17T07:30:08.093Z,22.51
2018-07-17T07:31:08.181Z,22.79
2018-07-17T07:32:08.124Z,22.76
2018-07-17T07:33:08.151Z,22.98
2018-07-17T07:34:08.213Z,23.02
2018-07-17T07:35:08.181Z,22.94
2018-07-17T07:36:08.199Z,22.86
2018-07-17T07:37:08.221Z,23.12
2018-07-17T07:38:08.286Z,22.97
2018-07-17T07:39:08.256Z,23.22
2018-07-17T07:40:08.269Z,23.17
2018-07-17T07:41:08.293Z,23.23
2018-07-17T07:42:08.316Z,23.35
2018-07-17T07:43:08.324Z,23.51
2018-07-17T07:44:08.400Z,23.53
2018-07-17T07:45:08.361Z,23.42
2018-07-17T07:46:08.430Z,23.72
2018-07-17T07:47:08.404Z,23.87
2018-07-17T07:48:08.416Z,23.88
2018-07-17T07:49:08.444Z,23.83
2018-07-17T07:50:08.517Z,23.85
2018-07-17T07:51:08.472Z,23.97
2018-07-17T07:52:08.545Z,23.79
2018-07-17T07:53:08.513Z,23.90
2018-07-17T07:54:08.530Z,24.03
2018-07-17T07:55:08.548Z,24.03
2018-07-17T07:56:08.659Z,24.20
2018-07-17T07:57:08.587Z,24.37
2018-07-17T07:58:08.658Z,24.05
2018-07-17T07:59:08.626Z,24.13
2018-07-17T08:00:08.651Z,24.31
2018-07-17T08:01:08.663Z,24.55
2018-07-17T08:02:08.684Z,24.61
2018-07-17T08:03:08.702Z,24.78
2018-07-17T08:04:08.773Z,24.85
2018-07-17T08:05:08.741Z,25.06
2018-07-17T08:06:08.765Z,25.28
2018-07-17T08:07:08.836Z,25.27
2018-07-17T08:08:08.804Z,25.25
2018-07-17T08:09:08.824Z,24.83
2018-07-17T08:10:08.897Z,25.09
2018-07-17T08:11:08.858Z,25.17
2018-07-17T08:12:08.941Z,25.28
2018-07-17T08:13:08.946Z,25.36
2018-07-17T08:14:08.923Z,25.35
2018-07-17T08:15:08.939Z,25.39
2018-07-17T08:16:09.014Z,25.23
2018-07-17T08:17:08.977Z,25.02
2018-07-17T08:18:08.998Z,25.24
2018-07-17T08:19:09.030Z,25.21
2018-07-17T08:20:09.042Z,25.23
2018-07-17T08:21:09.061Z,25.38
2018-07-17T08:22:09.127Z,25.46
2018-07-17T08:23:09.103Z,25.55
2018-07-17T08:24:09.149Z,25.67
2018-07-17T08:25:09.136Z,25.75
2018-07-17T08:26:09.163Z,25.33
2018-07-17T08:27:09.177Z,25.47
2018-07-17T08:28:09.198Z,25.77
2018-07-17T08:29:09.217Z,25.39
2018-07-17T08:30:09.246Z,25.43
2018-07-17T08:31:09.267Z,25.47
2018-07-17T08:32:09.283Z,25.38
2018-07-17T08:33:09.304Z,25.58
2018-07-17T08:34:09.374Z,25.61
2018-07-17T08:35:09.343Z,25.32
2018-07-17T08:36:09.359Z,25.65
2018-07-17T08:37:09.447Z,25.87
2018-07-17T08:38:09.406Z,25.97
2018-07-17T08:39:09.420Z,26.07
2018-07-17T08:40:09.497Z,26.48
2018-07-17T08:41:09.470Z,26.39
2018-07-17T08:42:09.485Z,26.33
2018-07-17T08:43:09.566Z,26.20
2018-07-17T08:44:09.526Z,25.79
2018-07-17T08:45:09.551Z,25.87
2018-07-17T08:46:09.586Z,25.65
2018-07-17T08:47:09.583Z,25.35
2018-07-17T08:48:09.609Z,25.52
2018-07-17T08:49:09.703Z,25.77
2018-07-17T08:50:09.650Z,25.73
2018-07-17T08:51:09.666Z,26.12
2018-07-17T08:52:09.745Z,26.25
2018-07-17T08:53:09.706Z,26.17
2018-07-17T08:54:09.734Z,26.44
2018-07-17T08:55:09.748Z,26.60
2018-07-17T08:56:09.773Z,26.62
2018-07-17T08:57:09.789Z,26.52
2018-07-17T08:58:09.813Z,26.40
2018-07-17T08:59:09.837Z,26.33
2018-07-17T09:00:09.851Z,26.35
2018-07-17T09:01:09.872Z,26.17
2018-07-17T09:02:09.897Z,26.47
2018-07-17T09:03:09.918Z,26.92
2018-07-17T09:04:09.986Z,27.19
2018-07-17T09:05:09.956Z,27.36
2018-07-17T09:06:09.977Z,27.57
2018-07-17T09:07:10.001Z,27.74
2018-07-17T09:08:10.094Z,27.85
2018-07-17T09:09:10.039Z,27.55
2018-07-17T09:10:10.066Z,27.43
2018-07-17T09:11:10.081Z,27.84
2018-07-17T09:12:10.114Z,27.92
2018-07-17T09:13:10.153Z,27.62
2018-07-17T09:14:10.166Z,27.32
2018-07-17T09:15:10.220Z,27.34
2018-07-17T09:16:10.189Z,27.46
2018-07-17T09:17:10.212Z,27.49
2018-07-17T09:18:10.233Z,27.85
2018-07-17T09:19:10.249Z,27.21
2018-07-17T09:20:10.287Z,27.39
2018-07-17T09:21:10.293Z,27.46
2018-07-17T09:22:10.316Z,27.67
2018-07-17T09:23:10.335Z,27.67
2018-07-17T09:24:10.357Z,27.82
2018-07-17T09:25:10.378Z,28.17
2018-07-17T09:26:10.403Z,28.06
2018-07-17T09:27:10.422Z,28.25
2018-07-17T09:28:10.527Z,28.58
2018-07-17T09:29:10.472Z,29.04
2018-07-17T09:30:10.487Z,28.80
2018-07-17T09:31:10.562Z,28.96
2018-07-17T09:32:10.538Z,28.78
2018-07-17T09:33:10.551Z,29.06
2018-07-17T09:34:10.633Z,29.00
2018-07-17T09:35:10.595Z,29.02
2018-07-17T09:36:10.626Z,28.46
2018-07-17T09:37:10.645Z,28.46
2018-07-17T09:38:10.680Z,28.55
2018-07-17T09:39:10.685Z,28.80
2018-07-17T09:40:10.710Z,28.74
2018-07-17T09:41:10.732Z,28.67
2018-07-17T09:42:10.754Z,28.36
2018-07-17T09:43:10.770Z,28.56
2018-07-17T09:44:10.874Z,28.95
2018-07-17T09:45:10.865Z,29.14
2018-07-17T09:46:10.839Z,29.02
2018-07-17T09:47:10.860Z,28.43
2018-07-17T09:48:10.887Z,28.15
2018-07-17T09:49:10.908Z,27.99
2018-07-17T09:50:10.932Z,27.87
2018-07-17T09:51:11.071Z,28.03
2018-07-17T09:52:10.968Z,28.36
2018-07-17T09:53:10.993Z,28.96
2018-07-17T09:54:11.058Z,29.26
2018-07-17T09:55:11.042Z,29.83
2018-07-17T09:56:11.063Z,30.16
2018-07-17T09:57:11.142Z,30.32
2018-07-17T09:58:11.104Z,29.98
2018-07-17T09:59:11.129Z,29.73
2018-07-17T10:00:11.162Z,29.46
2018-07-17T10:01:11.174Z,29.61
2018-07-17T10:02:11.198Z,29.65
2018-07-17T10:03:11.341Z,29.89
2018-07-17T10:04:11.242Z,29.82
2018-07-17T10:05:11.264Z,29.68
2018-07-17T10:06:11.325Z,29.70
2018-07-17T10:07:11.305Z,29.78
2018-07-17T10:08:11.327Z,29.42
2018-07-17T10:09:11.400Z,29.65
2018-07-17T10:10:11.378Z,29.71
2018-07-17T10:11:11.398Z,29.37
2018-07-17T10:12:11.419Z,29.43
2018-07-17T10:13:11.445Z,29.79
2018-07-17T10:14:11.469Z,30.10
2018-07-17T10:15:11.492Z,30.24
2018-07-17T10:16:11.514Z,30.37
2018-07-17T10:17:11.532Z,29.94
2018-07-17T10:18:11.570Z,29.83
2018-07-17T10:19:11.577Z,30.27
2018-07-17T10:20:11.673Z,30.46
2018-07-17T10:21:11.712Z,30.45
2018-07-17T10:22:11.651Z,30.73
2018-07-17T10:23:11.670Z,30.73
2018-07-17T10:24:11.700Z,30.49
2018-07-17T10:25:11.722Z,30.24
2018-07-17T10:26:11.763Z,30.60
2018-07-17T10:27:11.818Z,30.91
2018-07-17T10:28:11.786Z,30.91
2018-07-17T10:29:11.815Z,30.04
2018-07-17T10:30:11.834Z,30.27
2018-07-17T10:31:11.856Z,30.75
2018-07-17T10:32:11.971Z,30.64
2018-07-17T10:33:11.905Z,30.58
2018-07-17T10:34:11.931Z,30.69
2018-07-17T10:35:11.955Z,30.94
2018-07-17T10:36:11.979Z,31.01
2018-07-17T10:37:12.002Z,30.22
2018-07-17T10:38:12.024Z,29.85
2018-07-17T10:39:12.103Z,30.00
2018-07-17T10:40:12.134Z,30.26
2018-07-17T10:41:12.090Z,30.47
2018-07-17T10:42:12.121Z,30.73
2018-07-17T10:43:12.136Z,30.26
2018-07-17T10:44:12.165Z,30.53
2018-07-17T10:45:12.241Z,31.01
2018-07-17T10:46:12.258Z,31.16
2018-07-17T10:47:12.237Z,30.86
2018-07-17T10:48:12.256Z,30.92
2018-07-17T10:49:12.283Z,30.92
2018-07-17T10:50:12.306Z,31.04
2018-07-17T10:51:12.326Z,31.23
2018-07-17T10:52:12.362Z,31.50
2018-07-17T10:53:12.373Z,31.66
2018-07-17T10:54:12.401Z,31.47
2018-07-17T10:55:12.427Z,31.12
2018-07-17T10:56:12.444Z,30.53
2018-07-17T10:57:12.525Z,30.47
2018-07-17T10:58:12.497Z,30.69
2018-07-17T10:59:12.520Z,30.77
2018-07-17T11:00:12.540Z,30.97
2018-07-17T11:01:12.564Z,31.06
2018-07-17T11:02:12.588Z,31.46
2018-07-17T11:03:12.667Z,31.95
2018-07-17T11:04:12.638Z,32.19
2018-07-17T11:05:12.662Z,31.17
2018-07-17T11:06:12.686Z,31.04
2018-07-17T11:07:12.705Z,31.13
2018-07-17T11:09:12.805Z,30.26
2018-07-17T11:10:12.781Z,30.07
2018-07-17T11:11:12.805Z,29.94
2018-07-17T11:12:12.825Z,30.01
2018-07-17T11:13:12.860Z,30.42
2018-07-17T11:14:12.877Z,30.92
2018-07-17T11:15:12.945Z,31.28
2018-07-17T11:16:12.922Z,31.43
2018-07-17T11:17:12.970Z,31.80
2018-07-17T11:18:12.972Z,31.80
2018-07-17T11:19:12.992Z,31.61
2018-07-17T11:20:13.020Z,31.54
2018-07-17T11:21:13.088Z,31.95
2018-07-17T11:22:13.065Z,31.99
2018-07-17T11:23:13.089Z,32.08
2018-07-17T11:24:13.113Z,31.78
2018-07-17T11:25:13.137Z,31.48
2018-07-17T11:26:13.163Z,31.36
2018-07-17T11:27:13.234Z,30.86
2018-07-17T11:28:13.209Z,31.43
2018-07-17T11:29:13.229Z,31.96
2018-07-17T11:30:13.259Z,32.32
2018-07-17T11:31:13.276Z,32.70
2018-07-17T11:32:13.305Z,32.08
2018-07-17T11:33:13.380Z,32.33
2018-07-17T11:34:13.357Z,32.43
2018-07-17T11:35:13.373Z,32.56
2018-07-17T11:36:13.410Z,32.29
2018-07-17T11:37:13.426Z,30.86
2018-07-17T11:38:13.445Z,30.64
2018-07-17T11:39:13.524Z,30.92
2018-07-17T11:40:13.493Z,31.51
2018-07-17T11:41:13.523Z,31.35
2018-07-17T11:42:13.542Z,31.44
2018-07-17T11:43:13.565Z,31.63
2018-07-17T11:44:13.590Z,31.80
2018-07-17T11:45:13.670Z,31.99
2018-07-17T11:46:13.644Z,32.21
2018-07-17T11:47:13.662Z,32.33
2018-07-17T11:48:13.745Z,32.79
2018-07-17T11:49:13.714Z,32.50
2018-07-17T11:50:13.740Z,32.84
2018-07-17T11:51:13.809Z,32.69
2018-07-17T11:52:13.787Z,32.65
2018-07-17T11:53:13.814Z,32.78
2018-07-17T11:54:13.832Z,32.87
2018-07-17T11:55:13.871Z,32.75
2018-07-17T11:56:13.885Z,32.06
2018-07-17T11:57:13.962Z,31.51
2018-07-17T11:58:13.932Z,31.95
2018-07-17T11:59:14.159Z,32.28
2018-07-17T12:00:13.983Z,32.44
2018-07-17T12:01:14.003Z,32.52
2018-07-17T12:02:14.035Z,32.99
2018-07-17T12:03:14.053Z,32.99
2018-07-17T12:04:14.083Z,32.99
2018-07-17T12:05:14.101Z,33.03
2018-07-17T12:06:14.127Z,32.96
2018-07-17T12:07:14.150Z,33.23
2018-07-17T12:08:14.177Z,33.71
2018-07-17T12:09:14.265Z,33.87
2018-07-17T12:10:14.232Z,33.95
2018-07-17T12:11:14.253Z,34.13
2018-07-17T12:12:14.274Z,33.86
2018-07-17T12:13:14.319Z,33.00
2018-07-17T12:14:14.325Z,33.14
2018-07-17T12:15:14.412Z,33.14
2018-07-17T12:16:14.374Z,33.04
2018-07-17T12:17:14.399Z,33.29
2018-07-17T12:18:14.425Z,33.29
2018-07-17T12:19:14.468Z,33.21
2018-07-17T12:20:14.566Z,33.14
2018-07-17T12:21:14.550Z,33.34
2018-07-17T12:22:14.530Z,33.38
2018-07-17T12:23:14.552Z,33.41
2018-07-17T12:24:14.574Z,33.45
2018-07-17T12:25:14.601Z,33.34
2018-07-17T12:26:14.626Z,32.97
2018-07-17T12:27:14.702Z,33.28
2018-07-17T12:28:14.680Z,33.45
2018-07-17T12:29:14.701Z,32.99
2018-07-17T12:30:14.730Z,32.89
2018-07-17T12:31:14.757Z,32.78
2018-07-17T12:32:14.867Z,33.06
2018-07-17T12:33:15.009Z,33.26
2018-07-17T12:34:14.833Z,33.01
2018-07-17T12:35:14.857Z,32.96
2018-07-17T12:36:14.884Z,33.00
2018-07-17T12:37:14.904Z,33.45
2018-07-17T12:38:14.934Z,33.29
2018-07-17T12:39:15.007Z,33.37
2018-07-17T12:40:14.984Z,32.87
2018-07-17T12:41:15.013Z,32.38
2018-07-17T12:42:15.034Z,32.79
2018-07-17T12:43:15.061Z,32.88
2018-07-17T12:44:15.261Z,33.19
2018-07-17T12:45:15.157Z,32.89
2018-07-17T12:46:15.138Z,32.84
2018-07-17T12:47:15.159Z,33.00
2018-07-17T12:48:15.181Z,32.03
2018-07-17T12:49:15.211Z,32.37
2018-07-17T12:50:15.291Z,32.22
2018-07-17T12:51:15.311Z,32.59
2018-07-17T12:52:15.283Z,32.84
2018-07-17T12:53:15.307Z,33.66